Sierra Bonita, Arizona
Current Conditions -  °F | °C
As of 12:51 PM on Saturday 25 Oct 2014 (Local Time) from KSAD Reporting Station
Clear Clear  
Wind Chill: 84°   Ceiling: Unl
Heat Index: 84°   Visibility: 10mi
Dew Point: 43°   Wind: 0mph
Humidity: 24%   Direction: NA
Pressure: 30.12"   Gusts: NA
Location:  32.5598°N, 110.08°W
Report Text: KSAD 251951Z AUTO 00000KT 10SM CLR 29/06 A3012 RMK AO2 SLP158 T02890061
Loading
Personal Weather Stations






























Interactive Weather Map
Tropical Storm Tracking
New forecast layout! Learn more

10-Day Weather Forecast

Advertisements
Track Severe Weather on mobile